createdAt,value
2022-10-20T00:00:14.687Z,7.50
2022-10-20T00:01:13.545Z,7.60
2022-10-20T00:02:13.663Z,7.60
2022-10-20T00:03:13.476Z,7.60
2022-10-20T00:04:13.460Z,7.80
2022-10-20T00:05:13.566Z,7.80
2022-10-20T00:06:13.640Z,7.70
2022-10-20T00:07:14.136Z,7.80
2022-10-20T00:08:13.358Z,7.70
2022-10-20T00:09:13.585Z,7.70
2022-10-20T00:10:13.541Z,7.60
2022-10-20T00:11:13.478Z,7.60
2022-10-20T00:12:13.659Z,7.60
2022-10-20T00:13:13.843Z,7.50
2022-10-20T00:14:13.834Z,7.50
2022-10-20T00:15:13.680Z,7.90
2022-10-20T00:16:13.980Z,8.10
2022-10-20T00:17:12.827Z,8.10
2022-10-20T00:18:13.702Z,8.10
2022-10-20T00:19:13.533Z,8.10
2022-10-20T00:21:13.987Z,8.10
2022-10-20T00:22:13.073Z,8.00
2022-10-20T00:23:13.014Z,8.10
2022-10-20T00:24:12.923Z,8.00
2022-10-20T00:25:13.039Z,7.90
2022-10-20T00:26:13.103Z,8.00
2022-10-20T00:27:13.146Z,8.00
2022-10-20T00:28:13.069Z,8.00
2022-10-20T00:29:13.013Z,8.10
2022-10-20T00:30:13.023Z,8.10
2022-10-20T00:31:12.955Z,8.10
2022-10-20T00:32:12.986Z,8.20
2022-10-20T00:33:13.511Z,8.20
2022-10-20T00:34:13.435Z,8.30
2022-10-20T00:35:13.537Z,8.30
2022-10-20T00:36:13.398Z,8.30
2022-10-20T00:37:13.706Z,8.30
2022-10-20T00:38:13.979Z,8.20
2022-10-20T00:39:12.964Z,8.20
2022-10-20T00:40:12.956Z,8.30
2022-10-20T00:41:12.997Z,8.20
2022-10-20T00:42:13.530Z,8.20
2022-10-20T00:43:13.926Z,8.30
2022-10-20T00:44:12.815Z,8.50
2022-10-20T00:45:13.916Z,8.40
2022-10-20T00:46:12.934Z,8.40
2022-10-20T00:47:12.789Z,8.30
2022-10-20T00:48:13.796Z,8.40
2022-10-20T00:49:14.107Z,8.40
2022-10-20T00:50:13.000Z,8.30
2022-10-20T00:51:12.835Z,8.30
2022-10-20T00:52:13.691Z,8.20
2022-10-20T00:53:13.646Z,8.00
2022-10-20T00:54:13.787Z,8.10
2022-10-20T00:55:14.023Z,8.00
2022-10-20T00:56:13.357Z,8.00
2022-10-20T00:57:13.270Z,7.90
2022-10-20T00:58:13.157Z,7.90
2022-10-20T00:59:13.082Z,7.90
2022-10-20T01:00:13.001Z,7.90
2022-10-20T01:01:13.088Z,7.90
2022-10-20T01:02:13.396Z,7.90
2022-10-20T01:03:13.307Z,7.90
2022-10-20T01:04:13.532Z,7.90
2022-10-20T01:05:13.578Z,7.90
2022-10-20T01:06:13.619Z,8.10
2022-10-20T01:07:13.526Z,8.00
2022-10-20T01:08:13.800Z,8.10
2022-10-20T01:09:14.058Z,8.00
2022-10-20T01:10:13.054Z,8.00
2022-10-20T01:11:13.318Z,8.00
2022-10-20T01:12:13.457Z,8.00
2022-10-20T01:13:13.358Z,8.10
2022-10-20T01:14:13.291Z,8.10
2022-10-20T01:15:13.408Z,8.10
2022-10-20T01:16:13.750Z,8.10
2022-10-20T01:17:13.863Z,8.10
2022-10-20T01:18:13.677Z,8.10
2022-10-20T01:19:13.590Z,8.00
2022-10-20T01:20:13.427Z,8.00
2022-10-20T01:21:13.341Z,7.90
2022-10-20T01:22:13.339Z,8.00
2022-10-20T01:23:13.176Z,8.00
2022-10-20T01:24:13.479Z,8.10
2022-10-20T01:25:13.633Z,8.10
2022-10-20T01:26:13.702Z,8.20
2022-10-20T01:27:13.726Z,8.20
2022-10-20T01:28:13.668Z,8.20
2022-10-20T01:29:14.020Z,8.20
2022-10-20T01:30:13.097Z,8.20
2022-10-20T01:31:13.164Z,8.30
2022-10-20T01:32:13.524Z,8.20
2022-10-20T01:33:13.575Z,8.10
2022-10-20T01:34:13.555Z,8.00
2022-10-20T01:35:13.564Z,8.00
2022-10-20T01:36:18.630Z,8.20
2022-10-20T01:37:23.372Z,8.20
2022-10-20T01:38:13.495Z,8.20
2022-10-20T01:39:13.421Z,8.20
2022-10-20T01:40:13.257Z,8.20
2022-10-20T01:41:13.224Z,8.20
2022-10-20T01:42:13.650Z,8.20
2022-10-20T01:43:13.758Z,8.20
2022-10-20T01:44:14.758Z,8.20
2022-10-20T01:45:14.376Z,8.20
2022-10-20T01:46:13.608Z,8.20
2022-10-20T01:47:13.511Z,8.10
2022-10-20T01:48:13.736Z,8.10
2022-10-20T01:49:13.654Z,8.30
2022-10-20T01:50:13.913Z,8.30
2022-10-20T01:51:12.883Z,8.20
2022-10-20T01:52:12.802Z,8.30
2022-10-20T01:53:14.068Z,8.30
2022-10-20T01:54:12.982Z,8.20
2022-10-20T01:55:12.914Z,8.10
2022-10-20T01:56:12.851Z,8.10
2022-10-20T01:57:13.938Z,8.20
2022-10-20T01:58:12.817Z,8.10
2022-10-20T01:59:13.914Z,8.00
2022-10-20T02:00:12.833Z,8.10
2022-10-20T02:01:13.828Z,7.90
2022-10-20T02:02:14.034Z,7.90
2022-10-20T02:03:12.908Z,7.80
2022-10-20T02:04:12.949Z,7.60
2022-10-20T02:05:13.127Z,7.60
2022-10-20T02:06:13.165Z,7.70
2022-10-20T02:07:13.375Z,7.70
2022-10-20T02:08:13.408Z,7.60
2022-10-20T02:09:13.311Z,7.60
2022-10-20T02:10:13.388Z,7.60
2022-10-20T02:11:13.533Z,7.60
2022-10-20T02:12:13.585Z,7.50
2022-10-20T02:13:13.596Z,7.50
2022-10-20T02:14:13.648Z,7.50
2022-10-20T02:15:13.581Z,7.50
2022-10-20T02:16:13.552Z,7.40
2022-10-20T02:17:13.491Z,7.40
2022-10-20T02:18:13.645Z,7.50
2022-10-20T02:19:13.799Z,7.50
2022-10-20T02:20:13.886Z,7.40
2022-10-20T02:21:12.891Z,7.40
2022-10-20T02:22:12.953Z,7.50
2022-10-20T02:23:13.157Z,7.50
2022-10-20T02:24:13.102Z,7.50
2022-10-20T02:25:13.066Z,7.40
2022-10-20T02:26:12.881Z,7.40
2022-10-20T02:27:13.888Z,7.60
2022-10-20T02:28:14.163Z,7.50
2022-10-20T02:29:13.280Z,7.40
2022-10-20T02:30:13.525Z,7.60
2022-10-20T02:31:13.947Z,7.50
2022-10-20T02:32:13.060Z,7.50
2022-10-20T02:33:14.140Z,7.60
2022-10-20T02:34:13.493Z,7.60
2022-10-20T02:35:13.706Z,7.60
2022-10-20T02:36:13.787Z,7.60
2022-10-20T02:37:14.277Z,7.50
2022-10-20T02:38:13.343Z,7.50
2022-10-20T02:39:13.180Z,7.60
2022-10-20T02:40:13.154Z,7.40
2022-10-20T02:41:13.702Z,7.60
2022-10-20T02:42:14.328Z,7.60
2022-10-20T02:43:13.230Z,7.70
2022-10-20T02:44:13.287Z,7.70
2022-10-20T02:45:13.250Z,7.60
2022-10-20T02:46:13.321Z,7.40
2022-10-20T02:47:13.288Z,7.50
2022-10-20T02:48:13.268Z,7.50
2022-10-20T02:49:13.309Z,7.60
2022-10-20T02:50:13.263Z,7.50
2022-10-20T02:51:13.228Z,7.60
2022-10-20T02:52:13.259Z,7.50
2022-10-20T02:53:13.270Z,7.60
2022-10-20T02:54:13.146Z,7.50
2022-10-20T02:55:13.051Z,7.60
2022-10-20T02:56:13.480Z,7.50
2022-10-20T02:57:13.723Z,7.50
2022-10-20T02:58:13.757Z,7.60
2022-10-20T02:59:13.981Z,7.60
2022-10-20T03:00:12.921Z,7.60
2022-10-20T03:01:13.398Z,7.50
2022-10-20T03:02:13.737Z,7.50
2022-10-20T03:03:13.890Z,7.70
2022-10-20T03:04:14.214Z,7.70
2022-10-20T03:05:13.089Z,7.90
2022-10-20T03:06:13.001Z,7.80
2022-10-20T03:07:13.021Z,7.70
2022-10-20T03:08:13.002Z,7.90
2022-10-20T03:09:12.943Z,7.90
2022-10-20T03:10:12.856Z,7.90
2022-10-20T03:11:13.688Z,7.90
2022-10-20T03:12:13.924Z,8.00
2022-10-20T03:13:12.867Z,8.00
2022-10-20T03:14:13.887Z,7.90
2022-10-20T03:15:14.081Z,7.90
2022-10-20T03:16:13.270Z,7.90
2022-10-20T03:17:13.200Z,7.90
2022-10-20T03:18:13.040Z,7.90
2022-10-20T03:19:13.222Z,8.00
2022-10-20T03:20:13.205Z,7.90
2022-10-20T03:21:13.538Z,7.90
2022-10-20T03:22:13.499Z,8.10
2022-10-20T03:23:15.214Z,8.10
2022-10-20T03:24:14.176Z,8.10
2022-10-20T03:25:13.060Z,8.10
2022-10-20T03:26:12.918Z,8.10
2022-10-20T03:27:12.928Z,8.20
2022-10-20T03:28:12.830Z,8.10
2022-10-20T03:29:13.860Z,8.20
2022-10-20T03:30:14.001Z,8.10
2022-10-20T03:31:13.087Z,8.00
2022-10-20T03:32:13.256Z,8.10
2022-10-20T03:33:13.019Z,8.30
2022-10-20T03:34:13.090Z,8.20
2022-10-20T03:35:12.938Z,8.00
2022-10-20T03:36:12.886Z,8.20
2022-10-20T03:37:12.805Z,8.10
2022-10-20T03:38:14.036Z,8.10
2022-10-20T03:39:12.866Z,8.10
2022-10-20T03:40:14.026Z,8.30
2022-10-20T03:41:13.395Z,8.20
2022-10-20T03:42:13.377Z,8.00
2022-10-20T03:43:13.350Z,8.10
2022-10-20T03:44:13.707Z,8.20
2022-10-20T03:45:16.284Z,8.20
2022-10-20T03:46:13.721Z,8.10
2022-10-20T03:47:13.927Z,8.30
2022-10-20T03:48:12.820Z,8.20
2022-10-20T03:49:14.103Z,8.10
2022-10-20T03:50:13.128Z,8.20
2022-10-20T03:51:13.224Z,8.20
2022-10-20T03:52:13.201Z,8.10
2022-10-20T03:53:13.132Z,8.00
2022-10-20T03:54:13.233Z,8.10
2022-10-20T03:55:13.326Z,8.10
2022-10-20T03:56:13.424Z,8.00
2022-10-20T03:57:45.742Z,7.70
2022-10-20T03:58:13.729Z,7.90
2022-10-20T03:59:13.937Z,7.90
2022-10-20T04:00:12.984Z,7.80
2022-10-20T04:01:13.023Z,7.60
2022-10-20T04:02:12.867Z,7.50
2022-10-20T04:03:14.253Z,7.50
2022-10-20T04:04:13.273Z,7.80
2022-10-20T04:05:13.140Z,7.70
2022-10-20T04:06:13.047Z,7.60
2022-10-20T04:07:13.097Z,7.50
2022-10-20T04:08:12.999Z,7.60
2022-10-20T04:09:13.094Z,7.60
2022-10-20T04:10:13.070Z,7.50
2022-10-20T04:11:12.995Z,7.60
2022-10-20T04:12:13.043Z,7.70
2022-10-20T04:13:13.079Z,7.70
2022-10-20T04:14:13.044Z,7.70
2022-10-20T04:15:12.923Z,8.00
2022-10-20T04:16:13.021Z,8.00
2022-10-20T04:17:13.380Z,7.90
2022-10-20T04:18:13.356Z,8.00
2022-10-20T04:19:14.312Z,8.10
2022-10-20T04:20:13.425Z,8.00
2022-10-20T04:21:13.645Z,8.10
2022-10-20T04:22:13.666Z,8.20
2022-10-20T04:23:14.375Z,8.10
2022-10-20T04:24:13.281Z,8.20
2022-10-20T04:25:13.379Z,8.40
2022-10-20T04:26:13.661Z,8.40
2022-10-20T04:27:14.068Z,8.40
2022-10-20T04:28:13.341Z,8.20
2022-10-20T04:29:13.163Z,8.40
2022-10-20T04:30:13.880Z,8.40
2022-10-20T04:31:13.730Z,8.30
2022-10-20T04:32:13.835Z,8.10
2022-10-20T04:33:13.956Z,8.20
2022-10-20T04:34:12.913Z,8.30
2022-10-20T04:35:13.211Z,8.40
2022-10-20T04:36:13.168Z,8.50
2022-10-20T04:37:13.222Z,8.60
2022-10-20T04:38:13.131Z,8.50
2022-10-20T04:39:13.063Z,8.30
2022-10-20T04:40:12.941Z,8.40
2022-10-20T04:41:12.968Z,8.50
2022-10-20T04:42:12.892Z,8.50
2022-10-20T04:43:13.828Z,8.30
2022-10-20T04:44:13.661Z,8.30
2022-10-20T04:45:13.754Z,8.50
2022-10-20T04:46:13.625Z,8.40
2022-10-20T04:47:13.468Z,8.30
2022-10-20T04:48:13.399Z,8.20
2022-10-20T04:49:13.309Z,8.40
2022-10-20T04:50:13.348Z,8.10
2022-10-20T04:51:13.548Z,8.10
2022-10-20T04:52:13.599Z,8.00
2022-10-20T04:53:13.874Z,8.00
2022-10-20T04:54:12.872Z,8.00
2022-10-20T04:55:13.057Z,8.00
2022-10-20T04:56:13.081Z,8.10
2022-10-20T04:57:13.141Z,7.90
2022-10-20T04:58:13.212Z,8.10
2022-10-20T04:59:13.801Z,8.10
2022-10-20T05:00:13.148Z,8.40
2022-10-20T05:01:13.187Z,8.20
2022-10-20T05:02:13.414Z,8.20
2022-10-20T05:03:13.413Z,8.20
2022-10-20T05:04:13.681Z,8.40
2022-10-20T05:05:13.877Z,8.30
2022-10-20T05:06:13.836Z,8.10
2022-10-20T05:07:13.841Z,8.40
2022-10-20T05:08:13.755Z,8.50
2022-10-20T05:09:13.753Z,8.50
2022-10-20T05:10:13.711Z,8.50
2022-10-20T05:11:13.952Z,8.30
2022-10-20T05:12:18.955Z,8.10
2022-10-20T05:13:12.867Z,8.30
2022-10-20T05:14:21.138Z,8.20
2022-10-20T05:15:13.055Z,8.10
2022-10-20T05:16:26.984Z,8.20
2022-10-20T05:17:12.883Z,8.30
2022-10-20T05:18:13.686Z,8.20
2022-10-20T05:19:13.583Z,8.20
2022-10-20T05:20:14.177Z,8.20
2022-10-20T05:21:13.153Z,8.20
2022-10-20T05:22:13.522Z,8.40
2022-10-20T05:23:13.842Z,8.50
2022-10-20T05:24:16.873Z,8.50
2022-10-20T05:25:34.884Z,8.40
2022-10-20T05:26:13.470Z,8.30
2022-10-20T05:27:13.510Z,8.50
2022-10-20T05:28:13.542Z,8.60
2022-10-20T05:29:13.475Z,8.70
2022-10-20T05:30:13.383Z,8.70
2022-10-20T05:31:13.563Z,8.50
2022-10-20T05:32:13.680Z,8.40
2022-10-20T05:33:13.786Z,8.60
2022-10-20T05:34:14.109Z,8.60
2022-10-20T05:35:13.258Z,8.70
2022-10-20T05:36:15.882Z,8.70
2022-10-20T05:37:13.026Z,8.50
2022-10-20T05:38:12.883Z,8.50
2022-10-20T05:39:14.016Z,8.50
2022-10-20T05:40:13.338Z,8.40
2022-10-20T05:41:13.210Z,8.50
2022-10-20T05:42:13.729Z,8.70
2022-10-20T05:43:17.236Z,8.70
2022-10-20T05:44:13.462Z,8.60
2022-10-20T05:45:13.696Z,8.60
2022-10-20T05:46:27.683Z,8.70
2022-10-20T05:47:18.697Z,8.80
2022-10-20T05:48:13.743Z,8.80
2022-10-20T05:49:13.871Z,8.90
2022-10-20T05:50:13.713Z,8.80
2022-10-20T05:51:15.033Z,8.70
2022-10-20T05:52:13.734Z,8.80
2022-10-20T05:53:13.774Z,8.70
2022-10-20T05:54:13.709Z,8.60
2022-10-20T05:55:15.034Z,8.70
2022-10-20T05:56:13.290Z,8.90
2022-10-20T05:57:13.657Z,8.80
2022-10-20T05:58:13.718Z,8.60
2022-10-20T05:59:13.645Z,8.50
2022-10-20T06:00:13.056Z,8.60
2022-10-20T06:01:13.246Z,8.80
2022-10-20T06:02:13.413Z,8.70
2022-10-20T06:03:16.193Z,8.60
2022-10-20T06:04:12.966Z,8.50
2022-10-20T06:05:13.188Z,8.70
2022-10-20T06:06:13.269Z,8.50
2022-10-20T06:07:13.519Z,8.50
2022-10-20T06:08:13.465Z,8.80
2022-10-20T06:09:13.656Z,8.70
2022-10-20T06:10:13.626Z,8.80
2022-10-20T06:11:13.903Z,9.00
2022-10-20T06:12:12.860Z,8.90
2022-10-20T06:13:14.152Z,8.70
2022-10-20T06:14:13.487Z,8.90
2022-10-20T06:15:13.718Z,9.10
2022-10-20T06:16:13.823Z,9.20
2022-10-20T06:17:13.806Z,9.20
2022-10-20T06:18:14.064Z,8.90
2022-10-20T06:19:13.213Z,8.90
2022-10-20T06:20:13.210Z,9.00
2022-10-20T06:21:13.313Z,9.20
2022-10-20T06:22:13.248Z,9.20
2022-10-20T06:23:13.307Z,9.00
2022-10-20T06:24:13.358Z,9.20
2022-10-20T06:25:13.283Z,9.40
2022-10-20T06:26:13.612Z,9.40
2022-10-20T06:27:13.559Z,9.40
2022-10-20T06:28:13.488Z,9.30
2022-10-20T06:29:13.593Z,9.20
2022-10-20T06:30:13.852Z,9.30
2022-10-20T06:31:14.249Z,9.50
2022-10-20T06:33:13.406Z,9.20
2022-10-20T06:34:13.622Z,9.40
2022-10-20T06:35:13.963Z,9.50
2022-10-20T06:36:13.225Z,9.60
2022-10-20T06:37:13.389Z,9.60
2022-10-20T06:38:13.704Z,9.70
2022-10-20T06:39:13.950Z,9.70
2022-10-20T06:40:12.836Z,9.60
2022-10-20T06:41:13.683Z,9.70
2022-10-20T06:42:13.504Z,9.60
2022-10-20T06:43:13.605Z,9.80
2022-10-20T06:44:13.704Z,9.80
2022-10-20T06:45:15.628Z,10.00
2022-10-20T06:46:13.852Z,9.90
2022-10-20T06:47:14.117Z,9.90
2022-10-20T06:48:13.063Z,9.90
2022-10-20T06:49:13.105Z,9.90
2022-10-20T06:50:13.185Z,10.00
2022-10-20T06:51:13.257Z,10.10
2022-10-20T06:52:13.226Z,10.40
2022-10-20T06:53:13.173Z,10.60
2022-10-20T06:54:13.047Z,10.80
2022-10-20T06:55:12.979Z,11.00
2022-10-20T06:56:12.968Z,11.10
2022-10-20T06:57:13.057Z,11.10
2022-10-20T06:58:13.127Z,11.00
2022-10-20T06:59:13.139Z,11.10
2022-10-20T07:00:13.031Z,11.00
2022-10-20T07:01:13.049Z,10.80
2022-10-20T07:02:13.121Z,10.70
2022-10-20T07:03:13.805Z,10.80
2022-10-20T07:04:13.892Z,10.80
2022-10-20T07:05:12.865Z,11.00
2022-10-20T07:06:13.793Z,11.00
2022-10-20T07:07:13.649Z,10.80
2022-10-20T07:08:13.867Z,10.90
2022-10-20T07:09:14.111Z,10.90
2022-10-20T07:10:14.541Z,11.00
2022-10-20T07:11:13.404Z,10.80
2022-10-20T07:12:13.315Z,11.20
2022-10-20T07:13:13.424Z,11.40
2022-10-20T07:14:13.797Z,11.20
2022-10-20T07:15:13.911Z,11.00
2022-10-20T07:16:13.083Z,11.30
2022-10-20T07:17:13.410Z,11.50
2022-10-20T07:18:13.655Z,11.60
2022-10-20T07:19:13.929Z,11.70
2022-10-20T07:20:12.853Z,11.70
2022-10-20T07:21:13.992Z,11.40
2022-10-20T07:22:13.695Z,11.80
2022-10-20T07:23:14.301Z,12.10
2022-10-20T07:24:13.461Z,12.10
2022-10-20T07:25:13.459Z,12.60
2022-10-20T07:26:13.798Z,12.60
2022-10-20T07:27:13.869Z,12.70
2022-10-20T07:28:14.225Z,12.80
2022-10-20T07:29:13.573Z,13.00
2022-10-20T07:30:13.547Z,13.10
2022-10-20T07:31:13.548Z,13.20
2022-10-20T07:32:13.471Z,13.30
2022-10-20T07:33:13.822Z,13.10
2022-10-20T07:34:24.977Z,13.10
2022-10-20T07:35:13.018Z,13.40
2022-10-20T07:36:13.631Z,13.50
2022-10-20T07:37:13.804Z,13.70
2022-10-20T07:38:13.699Z,13.80
2022-10-20T07:39:13.606Z,13.80
2022-10-20T07:40:13.651Z,13.80
2022-10-20T07:41:13.519Z,13.60
2022-10-20T07:42:13.411Z,13.90
2022-10-20T07:43:13.623Z,14.10
2022-10-20T07:44:14.170Z,13.90
2022-10-20T07:45:13.278Z,14.20
2022-10-20T07:47:13.106Z,14.30
2022-10-20T07:48:13.600Z,14.10
2022-10-20T07:49:43.971Z,14.30
2022-10-20T07:50:13.647Z,14.00
2022-10-20T07:52:13.674Z,14.20
2022-10-20T07:53:13.731Z,14.40
2022-10-20T07:54:13.579Z,14.60
2022-10-20T07:55:36.637Z,14.60
2022-10-20T07:56:13.662Z,14.90
2022-10-20T07:57:13.994Z,14.80
2022-10-20T07:58:13.123Z,14.70
2022-10-20T07:59:13.410Z,14.60
2022-10-20T08:00:13.649Z,14.70
2022-10-20T08:01:13.921Z,14.80
2022-10-20T08:02:13.158Z,14.80
2022-10-20T08:03:13.255Z,14.80
2022-10-20T08:04:13.158Z,14.40
2022-10-20T08:05:13.268Z,14.60
2022-10-20T08:06:13.237Z,14.80
2022-10-20T08:07:13.618Z,14.60
2022-10-20T08:08:13.718Z,15.00
2022-10-20T08:09:13.702Z,14.60
2022-10-20T08:10:13.741Z,14.70
2022-10-20T08:11:13.755Z,14.90
2022-10-20T08:12:14.100Z,15.10
2022-10-20T08:13:13.166Z,14.90
2022-10-20T08:14:13.410Z,15.00
2022-10-20T08:15:17.039Z,15.20
2022-10-20T08:16:14.236Z,15.30
2022-10-20T08:17:13.192Z,15.40
2022-10-20T08:18:13.934Z,15.60
2022-10-20T08:19:15.262Z,15.40
2022-10-20T08:20:17.802Z,15.40
2022-10-20T08:21:14.020Z,15.80
2022-10-20T08:22:13.213Z,16.10
2022-10-20T08:23:13.151Z,16.20
2022-10-20T08:24:13.034Z,16.40
2022-10-20T08:25:13.090Z,16.50
2022-10-20T08:26:13.066Z,16.60
2022-10-20T08:27:13.161Z,16.20
2022-10-20T08:28:13.268Z,16.10
2022-10-20T08:29:13.358Z,16.30
2022-10-20T08:30:23.324Z,16.20
2022-10-20T08:31:13.657Z,16.10
2022-10-20T08:32:13.740Z,15.80
2022-10-20T08:33:13.756Z,15.70
2022-10-20T08:34:14.174Z,16.00
2022-10-20T08:35:13.045Z,16.10
2022-10-20T08:36:13.246Z,15.90
2022-10-20T08:37:13.548Z,16.00
2022-10-20T08:38:13.536Z,15.90
2022-10-20T08:39:13.709Z,16.20
2022-10-20T08:40:13.649Z,16.20
2022-10-20T08:41:13.587Z,15.80
2022-10-20T08:42:13.943Z,16.00
2022-10-20T08:43:13.436Z,16.00
2022-10-20T08:44:13.749Z,16.10
2022-10-20T08:45:14.018Z,15.90
2022-10-20T08:46:13.076Z,16.10
2022-10-20T08:47:13.268Z,15.70
2022-10-20T08:48:13.337Z,16.00
2022-10-20T08:49:13.265Z,16.00
2022-10-20T08:50:13.187Z,16.40
2022-10-20T08:51:13.143Z,16.40
2022-10-20T08:52:13.157Z,16.60
2022-10-20T08:53:13.182Z,16.20
2022-10-20T08:54:13.312Z,16.20
2022-10-20T08:55:13.411Z,16.10
2022-10-20T08:56:13.488Z,16.20
2022-10-20T08:57:13.881Z,16.30
2022-10-20T08:58:13.846Z,16.70
2022-10-20T08:59:13.756Z,16.50
2022-10-20T09:00:13.936Z,16.70
2022-10-20T09:01:18.333Z,16.50
2022-10-20T09:02:13.499Z,16.70
2022-10-20T09:03:13.676Z,16.70
2022-10-20T09:04:13.961Z,16.50
2022-10-20T09:05:15.362Z,16.70
2022-10-20T09:06:13.583Z,17.00
2022-10-20T09:07:13.983Z,16.50
2022-10-20T09:08:13.015Z,16.50
2022-10-20T09:09:13.204Z,16.50
2022-10-20T09:10:13.615Z,16.90
2022-10-20T09:11:13.729Z,17.00
2022-10-20T09:12:14.014Z,16.90
2022-10-20T09:13:18.505Z,17.00
2022-10-20T09:15:18.766Z,17.00
2022-10-20T09:16:22.100Z,17.30
2022-10-20T09:17:13.898Z,17.20
2022-10-20T09:18:13.224Z,17.30
2022-10-20T09:19:13.405Z,17.50
2022-10-20T09:20:13.479Z,17.60
2022-10-20T09:21:13.525Z,17.70
2022-10-20T09:22:13.893Z,17.90
2022-10-20T09:23:35.274Z,17.90
2022-10-20T09:24:13.552Z,17.70
2022-10-20T09:25:14.077Z,18.00
2022-10-20T09:26:24.778Z,17.90
2022-10-20T09:27:13.999Z,18.00
2022-10-20T09:28:13.209Z,18.30
2022-10-20T09:29:14.484Z,17.90
2022-10-20T09:30:13.593Z,18.10
2022-10-20T09:31:13.856Z,18.10
2022-10-20T09:32:44.572Z,18.00
2022-10-20T09:33:13.537Z,17.80
2022-10-20T09:34:13.640Z,18.00
2022-10-20T09:35:19.767Z,17.60
2022-10-20T09:36:14.239Z,17.50
2022-10-20T09:37:13.632Z,17.60
2022-10-20T09:38:13.725Z,18.00
2022-10-20T09:39:13.795Z,18.00
2022-10-20T09:40:14.190Z,17.90
2022-10-20T09:41:13.325Z,18.00
2022-10-20T09:42:13.455Z,17.70
2022-10-20T09:43:13.632Z,17.70
2022-10-20T09:44:13.699Z,17.90
2022-10-20T09:45:14.574Z,17.80
2022-10-20T09:46:13.744Z,18.00
2022-10-20T09:47:13.843Z,17.80
2022-10-20T09:48:13.862Z,17.30
2022-10-20T09:49:14.346Z,17.70
2022-10-20T09:50:13.726Z,17.40
2022-10-20T09:52:13.035Z,17.90
2022-10-20T09:53:23.330Z,17.80
2022-10-20T09:54:13.466Z,17.60
2022-10-20T09:55:13.824Z,17.60
2022-10-20T09:56:19.266Z,17.80
2022-10-20T09:57:13.514Z,17.60
2022-10-20T09:58:17.108Z,18.10
2022-10-20T09:59:13.542Z,18.10
2022-10-20T10:01:13.298Z,18.00
2022-10-20T10:02:13.384Z,17.70
2022-10-20T10:03:13.691Z,17.40
2022-10-20T10:04:13.723Z,17.50
2022-10-20T10:05:13.996Z,17.30
2022-10-20T10:06:13.066Z,17.30
2022-10-20T10:07:13.049Z,16.90
2022-10-20T10:08:12.910Z,17.10
2022-10-20T10:09:13.185Z,17.50
2022-10-20T10:10:13.263Z,17.40
2022-10-20T10:11:13.664Z,17.60
2022-10-20T10:12:13.723Z,17.70
2022-10-20T10:13:13.724Z,17.40
2022-10-20T10:14:15.098Z,17.40
2022-10-20T10:15:13.263Z,17.50
2022-10-20T10:16:13.428Z,17.60
2022-10-20T10:17:13.687Z,17.70
2022-10-20T10:18:13.865Z,17.80
2022-10-20T10:20:12.833Z,17.70
2022-10-20T10:21:13.883Z,17.90
2022-10-20T10:22:12.776Z,18.00
2022-10-20T10:23:14.064Z,17.80
2022-10-20T10:24:13.184Z,18.00
2022-10-20T10:25:18.154Z,18.10
2022-10-20T10:26:13.035Z,17.50
2022-10-20T10:27:13.277Z,17.40
2022-10-20T10:28:13.402Z,17.90
2022-10-20T10:29:27.300Z,17.90
2022-10-20T10:30:13.319Z,18.00
2022-10-20T10:31:13.375Z,18.00
2022-10-20T10:32:13.327Z,18.20
2022-10-20T10:33:13.220Z,17.90
2022-10-20T10:34:13.007Z,17.50
2022-10-20T10:35:12.908Z,17.20
2022-10-20T10:36:13.482Z,17.40
2022-10-20T10:37:13.722Z,17.00
2022-10-20T10:38:13.868Z,17.10
2022-10-20T10:39:13.798Z,17.50
2022-10-20T10:40:13.637Z,17.70
2022-10-20T10:41:13.549Z,17.60
2022-10-20T10:42:13.911Z,17.60
2022-10-20T10:43:13.150Z,17.70
2022-10-20T10:44:13.539Z,17.70
2022-10-20T10:45:13.556Z,17.40
2022-10-20T10:46:13.645Z,17.60
2022-10-20T10:47:13.869Z,17.50
2022-10-20T10:48:13.830Z,17.70
2022-10-20T10:49:13.926Z,17.30
2022-10-20T10:50:13.262Z,17.30
2022-10-20T10:51:13.670Z,17.10
2022-10-20T10:52:14.015Z,17.00
2022-10-20T10:53:13.451Z,17.10
2022-10-20T10:54:13.472Z,16.90
2022-10-20T10:55:21.230Z,17.20
2022-10-20T10:56:13.845Z,17.20
2022-10-20T10:57:13.970Z,16.90
2022-10-20T10:59:13.867Z,17.20
2022-10-20T11:00:13.858Z,17.30
2022-10-20T11:01:12.863Z,17.10
2022-10-20T11:02:12.989Z,17.10
2022-10-20T11:03:13.518Z,17.00
2022-10-20T11:04:13.563Z,17.00
2022-10-20T11:05:13.527Z,17.10
2022-10-20T11:06:13.441Z,17.10
2022-10-20T11:07:13.762Z,17.30
2022-10-20T11:08:13.625Z,17.20
2022-10-20T11:09:14.061Z,17.00
2022-10-20T11:10:13.246Z,16.90
2022-10-20T11:11:13.362Z,17.00
2022-10-20T11:12:13.391Z,16.90
2022-10-20T11:13:13.545Z,16.90
2022-10-20T11:14:13.416Z,17.00
2022-10-20T11:15:13.594Z,17.30
2022-10-20T11:16:13.953Z,17.20
2022-10-20T11:17:13.161Z,17.20
2022-10-20T11:18:13.324Z,17.00
2022-10-20T11:19:13.432Z,17.00
2022-10-20T11:20:14.486Z,17.20
2022-10-20T11:21:13.740Z,17.00
2022-10-20T11:22:14.772Z,17.10
2022-10-20T11:23:13.379Z,17.00
2022-10-20T11:24:13.400Z,17.10
2022-10-20T11:25:13.491Z,17.10
2022-10-20T11:26:13.354Z,17.00
2022-10-20T11:27:13.393Z,17.00
2022-10-20T11:28:13.551Z,16.90
2022-10-20T11:29:13.492Z,16.80
2022-10-20T11:30:13.381Z,17.00
2022-10-20T11:31:13.318Z,17.10
2022-10-20T11:32:13.303Z,16.80
2022-10-20T11:33:14.538Z,17.20
2022-10-20T11:34:13.877Z,17.10
2022-10-20T11:35:13.796Z,16.90
2022-10-20T11:36:13.868Z,16.80
2022-10-20T11:37:13.780Z,16.70
2022-10-20T11:38:14.017Z,16.80
2022-10-20T11:39:13.292Z,17.00
2022-10-20T11:40:13.408Z,16.90
2022-10-20T11:41:13.289Z,16.70
2022-10-20T11:42:13.214Z,16.60
2022-10-20T11:43:13.292Z,16.40
2022-10-20T11:44:13.258Z,16.50
2022-10-20T11:45:13.091Z,16.40
2022-10-20T11:46:13.172Z,16.30
2022-10-20T11:47:13.157Z,16.60
2022-10-20T11:48:13.485Z,16.60
2022-10-20T11:49:13.520Z,16.90
2022-10-20T11:50:13.618Z,16.70
2022-10-20T11:51:13.532Z,16.70
2022-10-20T11:52:13.502Z,16.30
2022-10-20T11:53:13.534Z,16.50
2022-10-20T11:54:13.583Z,16.60
2022-10-20T11:55:13.671Z,16.50
2022-10-20T11:56:13.741Z,16.80
2022-10-20T11:57:13.934Z,16.70
2022-10-20T11:58:13.369Z,16.60
2022-10-20T11:59:14.346Z,16.50
2022-10-20T12:00:13.227Z,16.70
2022-10-20T12:01:47.095Z,16.60
2022-10-20T12:02:13.219Z,16.60
2022-10-20T12:03:13.337Z,16.50
2022-10-20T12:04:13.399Z,16.80
2022-10-20T12:05:13.572Z,16.80
2022-10-20T12:06:13.512Z,16.80
2022-10-20T12:07:14.235Z,17.00
2022-10-20T12:08:28.660Z,17.00
2022-10-20T12:09:13.340Z,16.70
2022-10-20T12:10:14.720Z,16.60
2022-10-20T12:11:14.056Z,16.80
2022-10-20T12:12:12.953Z,16.70
2022-10-20T12:13:13.369Z,17.00
2022-10-20T12:14:13.751Z,17.00
2022-10-20T12:15:17.469Z,16.50
2022-10-20T12:16:13.887Z,16.80
2022-10-20T12:17:14.082Z,16.80
2022-10-20T12:18:18.313Z,16.90
2022-10-20T12:19:13.646Z,16.80
2022-10-20T12:20:13.610Z,16.80
2022-10-20T12:21:13.656Z,16.80
2022-10-20T12:22:14.113Z,16.90
2022-10-20T12:23:13.149Z,17.00
2022-10-20T12:24:13.435Z,17.00
2022-10-20T12:25:13.370Z,17.10
2022-10-20T12:26:13.248Z,16.90
2022-10-20T12:27:13.387Z,17.10
2022-10-20T12:28:13.418Z,17.00
2022-10-20T12:29:13.434Z,16.60
2022-10-20T12:30:13.925Z,16.70
2022-10-20T12:31:13.107Z,16.70
2022-10-20T12:32:13.233Z,16.50
2022-10-20T12:33:13.833Z,16.80
2022-10-20T12:34:13.762Z,16.90
2022-10-20T12:35:13.660Z,16.70
2022-10-20T12:36:13.712Z,16.70
2022-10-20T12:37:13.718Z,16.90
2022-10-20T12:38:13.830Z,16.70
2022-10-20T12:39:13.916Z,16.80
2022-10-20T12:40:13.131Z,16.50
2022-10-20T12:41:13.373Z,16.80
2022-10-20T12:42:13.285Z,16.90
2022-10-20T12:43:13.486Z,16.90
2022-10-20T12:44:13.459Z,16.80
2022-10-20T12:45:13.505Z,16.90
2022-10-20T12:46:13.729Z,16.80
2022-10-20T12:47:13.793Z,16.30
2022-10-20T12:48:15.094Z,16.60
2022-10-20T12:49:13.596Z,16.50
2022-10-20T12:50:13.866Z,16.40
2022-10-20T12:51:14.054Z,16.50
2022-10-20T12:52:13.313Z,16.50
2022-10-20T12:53:13.402Z,16.50
2022-10-20T12:54:13.331Z,16.60
2022-10-20T12:55:13.403Z,16.50
2022-10-20T12:56:13.294Z,16.80
2022-10-20T12:57:13.287Z,16.70
2022-10-20T12:58:13.299Z,16.70
2022-10-20T12:59:13.473Z,16.90
2022-10-20T13:00:13.512Z,16.40
2022-10-20T13:01:13.553Z,16.80
2022-10-20T13:02:13.747Z,16.60
2022-10-20T13:03:17.245Z,16.60
2022-10-20T13:04:13.764Z,16.40
2022-10-20T13:05:14.077Z,16.40
2022-10-20T13:06:13.587Z,16.40
2022-10-20T13:07:13.610Z,16.40
2022-10-20T13:08:13.846Z,16.40
2022-10-20T13:09:14.027Z,16.50
2022-10-20T13:10:13.296Z,16.30
2022-10-20T13:11:13.490Z,16.20
2022-10-20T13:12:13.405Z,16.30
2022-10-20T13:13:13.293Z,16.20
2022-10-20T13:14:13.446Z,16.00